Time;durP1;ratioP1;P1;durP2;ratioP2;P2;SDS_P1;SDS_P2;PMS_P1;PMS_P2;Temp;Humidity;BMP_temperature;BMP_pressure;BME280_temperature;BME280_humidity;BME280_pressure;Samples;Min_cycle;Max_cycle;Signal;HPM_P1;HPM_P2
2021/12/24 00:00:47;;;;;;;18.90;10.07;;;;;;;;;;5018794;28;20033;-82
2021/12/24 00:03:14;;;;;;;17.60;10.13;;;;;;;;;;5018838;28;20388;-82
2021/12/24 00:05:40;;;;;;;20.42;9.38;;;;;;;;;;5036334;28;20040;-82
2021/12/24 00:08:07;;;;;;;19.17;9.30;;;;;;;;;;5018643;28;20038;-83
2021/12/24 00:10:34;;;;;;;19.17;9.82;;;;;;;;;;5018683;28;20502;-83
2021/12/24 00:13:05;;;;;;;20.55;10.18;;;;;;;;;;5018625;28;20068;-83
2021/12/24 00:15:50;;;;;;;25.90;12.65;;;;;;;;;;5018548;28;20041;-83
2021/12/24 00:18:30;;;;;;;37.50;16.65;;;;;;;;;;5018625;28;20030;-83
2021/12/24 00:37:16;;;;;;;34.85;15.27;;;;;;;;;;5035900;28;20120;-83
2021/12/24 00:39:52;;;;;;;37.20;16.63;;;;;;;;;;5036388;28;20088;-83
2021/12/24 00:42:18;;;;;;;42.03;17.25;;;;;;;;;;5018151;28;20391;-83
2021/12/24 00:44:44;;;;;;;34.88;15.38;;;;;;;;;;5018039;28;20038;-83
2021/12/24 00:47:11;;;;;;;28.20;14.05;;;;;;;;;;5017947;28;20033;-83
2021/12/24 00:49:37;;;;;;;30.65;15.43;;;;;;;;;;5017971;28;20030;-83
2021/12/24 00:52:20;;;;;;;30.85;15.18;;;;;;;;;;5017324;28;20030;-82
2021/12/24 00:55:03;;;;;;;24.88;12.68;;;;;;;;;;5017992;28;20057;-83
2021/12/24 00:57:30;;;;;;;29.13;13.93;;;;;;;;;;5017598;28;20160;-82
2021/12/24 00:59:57;;;;;;;31.90;15.13;;;;;;;;;;5017464;28;20034;-82
2021/12/24 01:02:23;;;;;;;33.55;15.68;;;;;;;;;;5035443;28;20124;-82
2021/12/24 01:04:50;;;;;;;37.28;18.08;;;;;;;;;;5035078;28;20384;-82
2021/12/24 01:07:16;;;;;;;43.65;19.10;;;;;;;;;;5035351;28;20037;-82
2021/12/24 01:09:43;;;;;;;41.70;20.10;;;;;;;;;;5017511;28;20034;-83
2021/12/24 01:12:09;;;;;;;54.13;21.15;;;;;;;;;;5017446;28;20034;-82
2021/12/24 01:14:36;;;;;;;52.65;22.15;;;;;;;;;;5017421;28;20029;-82
2021/12/24 01:19:32;;;;;;;58.45;26.10;;;;;;;;;;5035022;28;20520;-82
2021/12/24 01:22:36;;;;;;;62.58;25.63;;;;;;;;;;5017312;28;20403;-82
2021/12/24 01:25:34;;;;;;;52.72;23.58;;;;;;;;;;5034675;28;20116;-82
2021/12/24 01:28:01;;;;;;;51.05;21.35;;;;;;;;;;5026428;28;20064;-82
2021/12/24 01:38:54;;;;;;;49.72;21.17;;;;;;;;;;5034957;28;20041;-82
2021/12/24 01:42:40;;;;;;;46.50;20.90;;;;;;;;;;5034573;28;20025;-82
2021/12/24 01:44:07;;;;;;;34.95;14.70;;;;;;;;;;5034512;28;20056;-82
2021/12/24 01:46:34;;;;;;;30.05;15.25;;;;;;;;;;5016951;28;20034;-82
2021/12/24 01:49:00;;;;;;;37.47;15.70;;;;;;;;;;5016827;28;20030;-82
2021/12/24 01:51:28;;;;;;;31.50;14.57;;;;;;;;;;5034569;28;20030;-82
2021/12/24 01:53:54;;;;;;;38.25;16.63;;;;;;;;;;5016739;28;20036;-82
2021/12/24 01:56:20;;;;;;;36.85;16.20;;;;;;;;;;5016693;28;20104;-82
2021/12/24 01:58:47;;;;;;;37.72;16.20;;;;;;;;;;5016691;28;20041;-82
2021/12/24 02:01:13;;;;;;;31.98;15.65;;;;;;;;;;5016382;28;20476;-83
2021/12/24 02:03:39;;;;;;;34.53;15.95;;;;;;;;;;5015866;28;20476;-82
2021/12/24 02:06:06;;;;;;;37.75;16.35;;;;;;;;;;5016285;28;20033;-83
2021/12/24 02:08:32;;;;;;;38.95;17.48;;;;;;;;;;5034236;28;20053;-82
2021/12/24 02:10:58;;;;;;;51.38;21.30;;;;;;;;;;5016573;28;20068;-82
2021/12/24 02:13:25;;;;;;;46.78;20.52;;;;;;;;;;5016322;28;20124;-82
2021/12/24 02:29:31;;;;;;;49.33;22.05;;;;;;;;;;5034235;28;20084;-83
2021/12/24 02:31:58;;;;;;;52.42;22.63;;;;;;;;;;5033881;28;20475;-82
2021/12/24 02:34:24;;;;;;;55.83;26.17;;;;;;;;;;5016150;28;20044;-83
2021/12/24 02:36:50;;;;;;;43.33;19.95;;;;;;;;;;5015992;28;20087;-83
2021/12/24 02:39:17;;;;;;;43.47;19.83;;;;;;;;;;5015879;28;20124;-82
2021/12/24 02:41:43;;;;;;;44.72;19.23;;;;;;;;;;5033717;28;20071;-82
2021/12/24 02:44:10;;;;;;;40.92;19.95;;;;;;;;;;5016017;28;20053;-82
2021/12/24 02:47:07;;;;;;;38.78;18.10;;;;;;;;;;5015912;28;20034;-82
2021/12/24 02:53:56;;;;;;;41.63;21.25;;;;;;;;;;5032947;28;20038;-82
2021/12/24 02:55:11;;;;;;;45.92;19.98;;;;;;;;;;5033660;28;20040;-82
2021/12/24 02:57:38;;;;;;;38.35;18.27;;;;;;;;;;5015931;28;20072;-83
2021/12/24 03:00:12;;;;;;;37.80;18.88;;;;;;;;;;5015882;28;20099;-83
2021/12/24 03:02:39;;;;;;;39.03;16.90;;;;;;;;;;5015959;28;20033;-82
2021/12/24 03:05:06;;;;;;;37.65;15.10;;;;;;;;;;5015706;28;20063;-82
2021/12/24 03:07:32;;;;;;;28.42;13.23;;;;;;;;;;5015779;28;20025;-82
2021/12/24 03:10:00;;;;;;;32.58;14.70;;;;;;;;;;5015809;28;20080;-83
2021/12/24 03:12:27;;;;;;;36.67;16.05;;;;;;;;;;5015751;28;20034;-83
2021/12/24 03:14:53;;;;;;;29.30;13.50;;;;;;;;;;5017015;28;20029;-83
2021/12/24 03:17:23;;;;;;;28.95;13.43;;;;;;;;;;5019588;28;20082;-82
2021/12/24 03:19:51;;;;;;;33.22;13.90;;;;;;;;;;5019576;28;20120;-83
2021/12/24 03:22:41;;;;;;;36.78;14.27;;;;;;;;;;5019447;28;20029;-82
2021/12/24 03:25:07;;;;;;;29.27;13.52;;;;;;;;;;5019552;28;20037;-82
2021/12/24 03:27:34;;;;;;;26.33;12.57;;;;;;;;;;5019341;28;20444;-83
2021/12/24 03:30:00;;;;;;;34.85;15.95;;;;;;;;;;5019606;28;20498;-82
2021/12/24 03:32:26;;;;;;;33.38;15.50;;;;;;;;;;5018909;28;20050;-83
2021/12/24 03:34:53;;;;;;;28.42;14.10;;;;;;;;;;5037313;28;20026;-82
2021/12/24 03:37:19;;;;;;;31.70;15.40;;;;;;;;;;5019206;28;20087;-82
2021/12/24 03:39:45;;;;;;;33.95;14.55;;;;;;;;;;5019477;28;20467;-83
2021/12/24 03:42:12;;;;;;;35.13;16.10;;;;;;;;;;5019096;28;20439;-83
2021/12/24 03:44:45;;;;;;;32.40;14.73;;;;;;;;;;5019210;28;20044;-83
2021/12/24 03:47:15;;;;;;;37.47;15.38;;;;;;;;;;5019157;28;20427;-82
2021/12/24 03:50:05;;;;;;;42.83;17.25;;;;;;;;;;5019062;28;20056;-83
2021/12/24 03:55:00;;;;;;;38.33;17.00;;;;;;;;;;5036755;28;20033;-83
2021/12/24 03:57:31;;;;;;;44.20;18.77;;;;;;;;;;5018710;28;20070;-82
2021/12/24 04:00:00;;;;;;;40.80;17.30;;;;;;;;;;5018896;28;20052;-82
2021/12/24 04:02:26;;;;;;;43.70;19.35;;;;;;;;;;5018760;28;20052;-83
2021/12/24 04:04:53;;;;;;;35.33;17.52;;;;;;;;;;5018393;28;20499;-83
2021/12/24 04:07:19;;;;;;;30.48;14.85;;;;;;;;;;5018703;28;20041;-83
2021/12/24 04:10:12;;;;;;;37.55;15.23;;;;;;;;;;5036412;28;20112;-83
2021/12/24 04:12:35;;;;;;;30.83;12.43;;;;;;;;;;5035491;28;20120;-83
2021/12/24 04:15:02;;;;;;;31.45;13.10;;;;;;;;;;5018618;28;20034;-83
2021/12/24 04:17:31;;;;;;;29.13;13.15;;;;;;;;;;5036260;28;20060;-83
2021/12/24 04:25:29;;;;;;;25.80;10.73;;;;;;;;;;5036402;28;20523;-82
2021/12/24 04:27:58;;;;;;;22.98;10.05;;;;;;;;;;5017547;28;20037;-83
2021/12/24 04:30:30;;;;;;;24.33;12.13;;;;;;;;;;5018249;28;20025;-83
2021/12/24 04:33:09;;;;;;;21.40;10.65;;;;;;;;;;5035870;28;20465;-83
2021/12/24 04:35:43;;;;;;;24.42;11.45;;;;;;;;;;5017967;28;20483;-83
2021/12/24 04:52:27;;;;;;;35.42;15.23;;;;;;;;;;5013548;28;20030;-83
2021/12/24 05:03:23;;;;;;;53.22;21.70;;;;;;;;;;5035718;28;20156;-83
2021/12/24 05:05:55;;;;;;;41.80;19.88;;;;;;;;;;5017461;28;20037;-83
2021/12/24 05:08:24;;;;;;;45.38;21.65;;;;;;;;;;5035090;28;20026;-83
2021/12/24 05:10:51;;;;;;;45.42;20.95;;;;;;;;;;5017445;28;20064;-83
2021/12/24 05:13:19;;;;;;;50.67;23.92;;;;;;;;;;5017510;28;20026;-83
2021/12/24 05:15:48;;;;;;;42.50;21.08;;;;;;;;;;5017403;28;20087;-83
2021/12/24 05:18:30;;;;;;;47.58;20.95;;;;;;;;;;5035277;28;20025;-83
2021/12/24 05:23:42;;;;;;;43.97;22.15;;;;;;;;;;5034969;28;20032;-83
2021/12/24 05:26:09;;;;;;;47.45;21.27;;;;;;;;;;5035061;28;20041;-83
2021/12/24 05:28:38;;;;;;;39.88;19.17;;;;;;;;;;5017193;28;20034;-83
2021/12/24 05:31:05;;;;;;;40.50;20.90;;;;;;;;;;5034675;28;20052;-83
2021/12/24 05:33:31;;;;;;;33.70;16.35;;;;;;;;;;5017183;28;20060;-84
2021/12/24 05:35:57;;;;;;;35.53;18.23;;;;;;;;;;5017067;28;20065;-83
2021/12/24 05:38:24;;;;;;;39.72;17.95;;;;;;;;;;5017068;28;20040;-83
2021/12/24 05:40:50;;;;;;;38.00;19.15;;;;;;;;;;5017030;28;20036;-83
2021/12/24 05:43:16;;;;;;;35.30;18.85;;;;;;;;;;5034476;28;20053;-83
2021/12/24 05:45:43;;;;;;;41.58;18.85;;;;;;;;;;5016850;28;20116;-83
2021/12/24 05:48:09;;;;;;;32.72;17.00;;;;;;;;;;5016835;28;20038;-83
2021/12/24 05:50:35;;;;;;;33.78;17.85;;;;;;;;;;5034759;28;20030;-84
2021/12/24 05:53:02;;;;;;;35.60;19.83;;;;;;;;;;5016676;28;20492;-83
2021/12/24 05:55:28;;;;;;;36.97;18.73;;;;;;;;;;5016713;28;20029;-83
2021/12/24 05:57:54;;;;;;;38.53;19.30;;;;;;;;;;5016747;28;20034;-83
2021/12/24 06:00:21;;;;;;;50.03;26.42;;;;;;;;;;5016634;28;20144;-84
2021/12/24 06:02:47;;;;;;;64.68;32.58;;;;;;;;;;5016376;28;20435;-84
2021/12/24 06:05:13;;;;;;;72.72;35.22;;;;;;;;;;5016519;28;20029;-83
2021/12/24 06:07:39;;;;;;;79.53;38.45;;;;;;;;;;5016825;28;20037;-84
2021/12/24 06:10:07;;;;;;;69.15;35.70;;;;;;;;;;5016547;28;20033;-84
2021/12/24 06:12:33;;;;;;;61.20;33.15;;;;;;;;;;5016462;28;20507;-83
2021/12/24 06:15:04;;;;;;;73.43;34.70;;;;;;;;;;5016425;28;20041;-84
2021/12/24 06:17:30;;;;;;;63.75;33.80;;;;;;;;;;5034280;28;20472;-84
2021/12/24 06:19:57;;;;;;;62.03;30.25;;;;;;;;;;5016345;28;20048;-84
2021/12/24 06:22:23;;;;;;;67.35;32.88;;;;;;;;;;5016301;28;20520;-84
2021/12/24 06:24:49;;;;;;;61.75;29.60;;;;;;;;;;5016336;28;20034;-84
2021/12/24 06:27:16;;;;;;;60.22;32.33;;;;;;;;;;5016372;28;20427;-84
2021/12/24 06:29:42;;;;;;;57.53;29.83;;;;;;;;;;5015973;28;20041;-84
2021/12/24 06:32:09;;;;;;;59.08;29.02;;;;;;;;;;5015979;28;20045;-84
2021/12/24 06:34:35;;;;;;;57.20;30.02;;;;;;;;;;5016102;28;20061;-84
2021/12/24 06:37:02;;;;;;;53.55;28.17;;;;;;;;;;5016179;28;20034;-84
2021/12/24 06:39:28;;;;;;;54.80;27.35;;;;;;;;;;5016124;28;20373;-84
2021/12/24 06:41:54;;;;;;;56.00;28.23;;;;;;;;;;5015941;28;20029;-84
2021/12/24 06:44:21;;;;;;;62.35;29.73;;;;;;;;;;5033446;28;20033;-84
2021/12/24 06:46:48;;;;;;;53.35;28.83;;;;;;;;;;5016081;28;20365;-85
2021/12/24 06:49:14;;;;;;;57.05;27.48;;;;;;;;;;5015498;28;20503;-84
2021/12/24 06:51:40;;;;;;;47.65;25.05;;;;;;;;;;5016062;28;20145;-84
2021/12/24 06:54:07;;;;;;;48.58;23.98;;;;;;;;;;5016176;28;20041;-84
2021/12/24 06:56:33;;;;;;;48.03;23.52;;;;;;;;;;5015850;28;20037;-84
2021/12/24 06:58:59;;;;;;;62.33;28.98;;;;;;;;;;5015873;28;20075;-84
2021/12/24 07:01:26;;;;;;;48.17;25.95;;;;;;;;;;5015841;28;20388;-84
2021/12/24 07:03:52;;;;;;;55.08;26.17;;;;;;;;;;5015777;28;20083;-84
2021/12/24 07:06:18;;;;;;;44.95;22.15;;;;;;;;;;5015741;28;20030;-84
2021/12/24 07:08:45;;;;;;;41.92;20.70;;;;;;;;;;5015858;28;20117;-84
2021/12/24 07:11:11;;;;;;;46.55;22.42;;;;;;;;;;5015875;28;20037;-84
2021/12/24 07:13:37;;;;;;;45.60;23.92;;;;;;;;;;5015733;28;20037;-84
2021/12/24 07:16:04;;;;;;;45.20;22.30;;;;;;;;;;5015758;28;20120;-84
2021/12/24 07:18:30;;;;;;;42.40;21.08;;;;;;;;;;5015583;28;20034;-84
2021/12/24 07:20:56;;;;;;;43.88;22.52;;;;;;;;;;5015648;28;20124;-84
2021/12/24 07:23:23;;;;;;;47.85;22.08;;;;;;;;;;5015529;28;20037;-84
2021/12/24 07:25:49;;;;;;;47.25;23.05;;;;;;;;;;5033305;28;20033;-84
2021/12/24 07:28:15;;;;;;;42.67;21.90;;;;;;;;;;5015684;28;20033;-84
2021/12/24 07:30:42;;;;;;;42.28;22.27;;;;;;;;;;5015339;28;20499;-84
2021/12/24 07:33:08;;;;;;;45.97;23.10;;;;;;;;;;5015546;28;20033;-84
2021/12/24 07:35:35;;;;;;;41.13;22.13;;;;;;;;;;5015471;28;20037;-84
2021/12/24 07:38:01;;;;;;;46.33;22.08;;;;;;;;;;5015509;28;20037;-85
2021/12/24 07:40:27;;;;;;;49.83;24.25;;;;;;;;;;5033279;28;20535;-84
2021/12/24 07:42:55;;;;;;;59.15;30.40;;;;;;;;;;5015638;28;20025;-84
2021/12/24 07:45:21;;;;;;;64.07;31.05;;;;;;;;;;5015447;28;20036;-84
2021/12/24 07:48:05;;;;;;;56.38;27.98;;;;;;;;;;5015957;28;20033;-84
2021/12/24 07:52:58;;;;;;;53.53;27.98;;;;;;;;;;5033237;28;20036;-85
2021/12/24 07:55:24;;;;;;;60.80;28.65;;;;;;;;;;5033646;28;20087;-84
2021/12/24 07:57:52;;;;;;;64.25;29.67;;;;;;;;;;5033176;28;20060;-84
2021/12/24 08:00:22;;;;;;;62.63;28.67;;;;;;;;;;5015311;28;20423;-85
2021/12/24 08:02:49;;;;;;;55.97;27.33;;;;;;;;;;5017904;28;20033;-84
2021/12/24 08:05:19;;;;;;;55.38;28.88;;;;;;;;;;5018669;28;20123;-84
2021/12/24 08:07:45;;;;;;;53.53;26.15;;;;;;;;;;5018786;28;20034;-84
2021/12/24 08:10:11;;;;;;;52.33;25.25;;;;;;;;;;5018761;28;20030;-84
2021/12/24 08:12:37;;;;;;;47.40;24.77;;;;;;;;;;5018782;28;20052;-85
2021/12/24 08:15:06;;;;;;;52.47;25.73;;;;;;;;;;5018712;28;20057;-85
2021/12/24 08:17:32;;;;;;;59.90;29.63;;;;;;;;;;5018669;28;20124;-85
2021/12/24 08:19:59;;;;;;;53.35;26.73;;;;;;;;;;5018513;28;20037;-83
2021/12/24 08:22:25;;;;;;;54.13;26.85;;;;;;;;;;5018462;28;20468;-85
2021/12/24 08:24:52;;;;;;;56.90;28.05;;;;;;;;;;5018569;28;20129;-84
2021/12/24 08:27:19;;;;;;;68.00;33.97;;;;;;;;;;5018517;28;20040;-84
2021/12/24 08:29:45;;;;;;;94.22;44.55;;;;;;;;;;5036199;28;20033;-84
2021/12/24 08:32:12;;;;;;;115.13;49.20;;;;;;;;;;5018267;28;20049;-84
2021/12/24 08:34:39;;;;;;;111.32;47.70;;;;;;;;;;5018336;28;20037;-84
2021/12/24 08:37:05;;;;;;;124.55;52.15;;;;;;;;;;5018315;28;20033;-84
2021/12/24 08:39:32;;;;;;;128.00;54.88;;;;;;;;;;5035722;28;20037;-84
2021/12/24 08:41:59;;;;;;;122.35;56.47;;;;;;;;;;5018086;28;20033;-85
2021/12/24 08:44:34;;;;;;;124.00;56.10;;;;;;;;;;5018264;28;20034;-85
2021/12/24 08:47:01;;;;;;;129.40;56.50;;;;;;;;;;5035775;28;20042;-85
2021/12/24 08:49:28;;;;;;;124.80;54.80;;;;;;;;;;5017975;28;20034;-84
2021/12/24 08:51:55;;;;;;;131.70;58.30;;;;;;;;;;5035640;28;20504;-84
2021/12/24 08:54:21;;;;;;;125.68;55.70;;;;;;;;;;5018032;28;20143;-84
2021/12/24 08:56:48;;;;;;;141.75;59.35;;;;;;;;;;5017772;28;20033;-84
2021/12/24 08:59:15;;;;;;;138.10;57.53;;;;;;;;;;5035464;28;20029;-85
2021/12/24 09:01:44;;;;;;;144.52;62.05;;;;;;;;;;5017835;28;20173;-84
2021/12/24 09:04:12;;;;;;;153.00;63.60;;;;;;;;;;5035616;28;20041;-84
2021/12/24 09:06:38;;;;;;;153.60;65.97;;;;;;;;;;5017673;28;20033;-84
2021/12/24 09:09:10;;;;;;;162.85;65.93;;;;;;;;;;5017678;28;20415;-84
2021/12/24 09:11:37;;;;;;;172.40;68.55;;;;;;;;;;5035867;28;20104;-84
2021/12/24 09:14:03;;;;;;;156.48;65.28;;;;;;;;;;5017307;28;20033;-85
2021/12/24 09:16:30;;;;;;;164.77;68.13;;;;;;;;;;5017590;28;20033;-85
2021/12/24 09:19:02;;;;;;;172.07;68.78;;;;;;;;;;5017419;28;20033;-85
2021/12/24 09:21:29;;;;;;;212.55;78.20;;;;;;;;;;5017582;28;20041;-84
2021/12/24 09:23:57;;;;;;;209.65;78.43;;;;;;;;;;5017435;28;20033;-84
2021/12/24 09:26:28;;;;;;;227.57;83.45;;;;;;;;;;5017439;28;20033;-84
2021/12/24 09:28:55;;;;;;;232.95;82.38;;;;;;;;;;5017373;28;20441;-85
2021/12/24 09:31:22;;;;;;;235.95;84.57;;;;;;;;;;5017063;28;20056;-84
2021/12/24 09:33:48;;;;;;;229.90;86.38;;;;;;;;;;5017349;28;20229;-84
2021/12/24 09:36:20;;;;;;;247.70;88.20;;;;;;;;;;5017009;28;20030;-84
2021/12/24 09:38:46;;;;;;;276.38;96.47;;;;;;;;;;5017184;28;20526;-85
2021/12/24 09:41:12;;;;;;;272.55;95.47;;;;;;;;;;5017079;28;20063;-85
2021/12/24 09:43:39;;;;;;;260.70;89.70;;;;;;;;;;5017213;28;20120;-85
2021/12/24 09:46:05;;;;;;;258.67;92.57;;;;;;;;;;5017071;28;20055;-84
2021/12/24 09:48:31;;;;;;;284.40;95.45;;;;;;;;;;5016961;28;20029;-84
2021/12/24 09:50:57;;;;;;;284.25;97.35;;;;;;;;;;5016992;28;20030;-84
2021/12/24 09:53:24;;;;;;;285.00;99.72;;;;;;;;;;5016911;28;20472;-84
2021/12/24 09:55:50;;;;;;;288.90;97.47;;;;;;;;;;5016768;28;20029;-84
2021/12/24 09:58:16;;;;;;;311.95;103.07;;;;;;;;;;5017020;28;20476;-85
2021/12/24 10:00:43;;;;;;;326.38;106.00;;;;;;;;;;5016672;28;20434;-84
2021/12/24 10:03:09;;;;;;;298.20;100.80;;;;;;;;;;5016827;28;20088;-84
2021/12/24 10:05:38;;;;;;;293.95;97.18;;;;;;;;;;5016731;28;20033;-85
2021/12/24 10:08:07;;;;;;;299.45;100.88;;;;;;;;;;5016751;28;20120;-84
2021/12/24 10:10:34;;;;;;;292.25;100.20;;;;;;;;;;5016561;28;20033;-85
2021/12/24 10:13:19;;;;;;;287.52;93.88;;;;;;;;;;5016601;28;20126;-85
2021/12/24 10:15:52;;;;;;;308.40;98.25;;;;;;;;;;5016584;28;20041;-85
2021/12/24 10:18:28;;;;;;;295.75;100.28;;;;;;;;;;5016668;28;20404;-85
2021/12/24 10:21:11;;;;;;;319.75;104.20;;;;;;;;;;5016579;28;20056;-85
2021/12/24 10:23:40;;;;;;;282.38;94.80;;;;;;;;;;5034314;28;20109;-85
2021/12/24 10:26:18;;;;;;;315.05;102.03;;;;;;;;;;5016027;28;20033;-85
2021/12/24 10:28:55;;;;;;;291.35;99.68;;;;;;;;;;5016387;28;20101;-84
2021/12/24 10:31:24;;;;;;;280.58;97.85;;;;;;;;;;5015942;28;20472;-84
2021/12/24 10:34:07;;;;;;;280.88;95.32;;;;;;;;;;5034308;28;20065;-85
2021/12/24 10:36:33;;;;;;;293.52;98.95;;;;;;;;;;5016380;28;20088;-84
2021/12/24 10:38:59;;;;;;;271.63;94.57;;;;;;;;;;5016286;28;20048;-84
2021/12/24 10:41:28;;;;;;;308.40;100.32;;;;;;;;;;5016263;28;20030;-85
2021/12/24 10:43:54;;;;;;;324.40;102.53;;;;;;;;;;5033913;28;20026;-85
2021/12/24 10:46:23;;;;;;;273.88;95.05;;;;;;;;;;5034056;28;20484;-85
2021/12/24 10:49:13;;;;;;;320.95;103.38;;;;;;;;;;5016228;28;20499;-85
2021/12/24 10:51:59;;;;;;;279.33;96.30;;;;;;;;;;5016117;28;20033;-85
2021/12/24 10:54:25;;;;;;;321.75;101.60;;;;;;;;;;5016101;28;20037;-84
2021/12/24 10:56:53;;;;;;;306.17;98.63;;;;;;;;;;5016004;28;20041;-85
2021/12/24 10:59:40;;;;;;;273.17;94.72;;;;;;;;;;5016236;28;20044;-84
2021/12/24 11:02:10;;;;;;;267.23;94.32;;;;;;;;;;5016058;28;20032;-84
2021/12/24 11:04:37;;;;;;;304.92;98.82;;;;;;;;;;5033504;28;20026;-85
2021/12/24 11:07:03;;;;;;;285.63;95.43;;;;;;;;;;5016614;28;20045;-85
2021/12/24 11:09:30;;;;;;;307.50;97.82;;;;;;;;;;5015967;28;20033;-85
2021/12/24 11:11:58;;;;;;;274.85;93.85;;;;;;;;;;5016046;28;20025;-85
2021/12/24 11:14:25;;;;;;;309.95;96.95;;;;;;;;;;5015878;28;20030;-85
2021/12/24 11:16:51;;;;;;;314.73;99.50;;;;;;;;;;5015797;28;20038;-85
2021/12/24 11:19:18;;;;;;;298.08;94.70;;;;;;;;;;5015724;28;20029;-85
2021/12/24 11:21:45;;;;;;;279.35;95.88;;;;;;;;;;5015888;28;20030;-84
2021/12/24 11:24:11;;;;;;;291.00;94.40;;;;;;;;;;5015691;28;20480;-84
2021/12/24 11:26:50;;;;;;;288.65;93.00;;;;;;;;;;5015793;28;20041;-84
2021/12/24 11:29:16;;;;;;;284.45;92.63;;;;;;;;;;5033575;28;20425;-85
2021/12/24 11:31:43;;;;;;;270.70;95.13;;;;;;;;;;5015380;28;20053;-85
2021/12/24 11:34:10;;;;;;;251.75;87.53;;;;;;;;;;5015873;28;20387;-85
2021/12/24 11:36:37;;;;;;;258.00;89.20;;;;;;;;;;5010130;28;20045;-85
2021/12/24 11:39:07;;;;;;;239.00;83.78;;;;;;;;;;5019524;28;20030;-84
2021/12/24 11:41:34;;;;;;;302.50;95.13;;;;;;;;;;5019348;28;20066;-85
2021/12/24 11:44:05;;;;;;;285.92;91.65;;;;;;;;;;5019421;28;20040;-85
2021/12/24 11:46:33;;;;;;;257.88;85.85;;;;;;;;;;5019315;28;20361;-85
2021/12/24 11:48:59;;;;;;;275.75;87.25;;;;;;;;;;5037128;28;20211;-85
2021/12/24 11:51:27;;;;;;;259.00;83.80;;;;;;;;;;5019205;28;20439;-85
2021/12/24 11:53:58;;;;;;;251.48;81.70;;;;;;;;;;5019231;28;20117;-84
2021/12/24 11:56:24;;;;;;;258.90;85.45;;;;;;;;;;5036867;28;20033;-85
2021/12/24 11:58:55;;;;;;;320.98;99.05;;;;;;;;;;5018953;28;20037;-85
2021/12/24 12:01:37;;;;;;;273.35;89.00;;;;;;;;;;5019101;28;20388;-85
2021/12/24 12:04:11;;;;;;;260.65;82.55;;;;;;;;;;5019064;28;20030;-85
2021/12/24 12:06:38;;;;;;;286.55;86.68;;;;;;;;;;5019161;28;20040;-85
2021/12/24 12:09:08;;;;;;;270.95;87.97;;;;;;;;;;5018964;28;20029;-85
2021/12/24 12:11:36;;;;;;;266.88;86.20;;;;;;;;;;5018906;28;20126;-85
2021/12/24 12:14:05;;;;;;;355.63;111.95;;;;;;;;;;5019471;28;20041;-85
2021/12/24 12:16:40;;;;;;;306.08;100.45;;;;;;;;;;5018822;28;20064;-85
2021/12/24 12:19:11;;;;;;;411.77;124.35;;;;;;;;;;5018851;28;20040;-85
2021/12/24 12:21:43;;;;;;;379.15;120.78;;;;;;;;;;5018569;28;20112;-84
2021/12/24 12:26:44;;;;;;;430.63;127.13;;;;;;;;;;5036444;28;20488;-85
2021/12/24 12:29:25;;;;;;;414.75;124.15;;;;;;;;;;5018610;28;20029;-85
2021/12/24 12:32:12;;;;;;;443.90;130.25;;;;;;;;;;5018233;28;20061;-86
2021/12/24 12:34:41;;;;;;;409.80;123.30;;;;;;;;;;5005593;28;20045;-84
2021/12/24 12:37:18;;;;;;;406.45;121.55;;;;;;;;;;5018364;28;20033;-85
2021/12/24 12:39:45;;;;;;;393.02;118.60;;;;;;;;;;5018371;28;20061;-85
2021/12/24 12:42:14;;;;;;;407.98;119.97;;;;;;;;;;5018419;28;20040;-85
2021/12/24 12:44:45;;;;;;;425.02;120.03;;;;;;;;;;5018100;28;20149;-85
2021/12/24 12:47:13;;;;;;;388.95;114.40;;;;;;;;;;5018188;28;20084;-85
2021/12/24 12:49:39;;;;;;;419.38;113.97;;;;;;;;;;5035913;28;20030;-85
2021/12/24 12:52:11;;;;;;;410.80;111.22;;;;;;;;;;5018312;28;20033;-85
2021/12/24 12:54:45;;;;;;;435.08;115.97;;;;;;;;;;5018220;28;20029;-84
2021/12/24 12:57:12;;;;;;;439.30;118.25;;;;;;;;;;5017936;28;20132;-84
2021/12/24 12:59:38;;;;;;;398.13;108.90;;;;;;;;;;5018020;28;20049;-85
2021/12/24 13:02:05;;;;;;;435.92;108.22;;;;;;;;;;5035855;28;20108;-85
2021/12/24 13:04:31;;;;;;;444.77;106.68;;;;;;;;;;5017887;28;20116;-85
2021/12/24 13:06:58;;;;;;;354.17;97.45;;;;;;;;;;5017740;28;20124;-85
2021/12/24 13:09:32;;;;;;;424.00;103.18;;;;;;;;;;5017809;28;20052;-86
2021/12/24 13:11:59;;;;;;;413.58;103.38;;;;;;;;;;5017873;28;20033;-85
2021/12/24 13:14:27;;;;;;;350.75;94.70;;;;;;;;;;5017882;28;20072;-85
2021/12/24 13:17:15;;;;;;;380.05;95.93;;;;;;;;;;5017509;28;20036;-85
2021/12/24 13:19:59;;;;;;;455.20;97.85;;;;;;;;;;5035170;28;20029;-85
2021/12/24 13:22:31;;;;;;;459.80;97.05;;;;;;;;;;5017621;28;20048;-85
2021/12/24 13:25:10;;;;;;;328.48;84.45;;;;;;;;;;5017606;28;20033;-85
2021/12/24 13:27:41;;;;;;;373.45;86.18;;;;;;;;;;5017512;28;20034;-85
2021/12/24 13:30:07;;;;;;;359.17;86.68;;;;;;;;;;5035430;28;20036;-85
2021/12/24 13:32:43;;;;;;;409.23;88.28;;;;;;;;;;5016857;28;20053;-85
2021/12/24 13:35:09;;;;;;;400.30;91.15;;;;;;;;;;5017193;28;20034;-85
2021/12/24 13:37:35;;;;;;;390.13;89.43;;;;;;;;;;5017237;28;20029;-85
2021/12/24 13:40:03;;;;;;;349.55;84.57;;;;;;;;;;5034961;28;20038;-85
2021/12/24 13:42:29;;;;;;;343.20;81.65;;;;;;;;;;5034715;28;20107;-85
2021/12/24 13:45:03;;;;;;;365.58;84.35;;;;;;;;;;5017131;28;20025;-85
2021/12/24 13:47:40;;;;;;;290.60;78.28;;;;;;;;;;5017148;28;20583;-85
2021/12/24 13:55:32;;;;;;;277.70;71.25;;;;;;;;;;5035013;28;20040;-85
2021/12/24 13:58:07;;;;;;;324.20;72.22;;;;;;;;;;5016960;28;20048;-85
2021/12/24 14:00:34;;;;;;;243.32;64.40;;;;;;;;;;5016582;28;20037;-85
2021/12/24 14:03:02;;;;;;;317.05;70.40;;;;;;;;;;5016793;28;20033;-85
2021/12/24 14:05:29;;;;;;;332.75;73.88;;;;;;;;;;5016707;28;20117;-85
2021/12/24 14:08:04;;;;;;;284.13;68.57;;;;;;;;;;5016784;28;20427;-85
2021/12/24 14:10:31;;;;;;;285.33;68.82;;;;;;;;;;5016644;28;20029;-86
2021/12/24 14:13:04;;;;;;;292.08;71.85;;;;;;;;;;5016953;28;20031;-85
2021/12/24 14:15:32;;;;;;;277.60;68.32;;;;;;;;;;5034410;28;20022;-85
2021/12/24 14:18:42;;;;;;;320.27;77.38;;;;;;;;;;5016580;28;20523;-85
2021/12/24 14:21:52;;;;;;;278.45;67.97;;;;;;;;;;5030114;28;20029;-85
2021/12/24 14:24:04;;;;;;;316.52;76.45;;;;;;;;;;5016594;28;20420;-85
2021/12/24 14:26:34;;;;;;;263.05;71.03;;;;;;;;;;5016488;28;20132;-85
2021/12/24 14:29:06;;;;;;;252.48;67.70;;;;;;;;;;5016573;28;20029;-85
2021/12/24 14:31:53;;;;;;;280.77;77.03;;;;;;;;;;5016320;28;20073;-85
2021/12/24 14:34:33;;;;;;;258.30;70.72;;;;;;;;;;5016474;28;20164;-85
2021/12/24 14:37:07;;;;;;;309.52;81.30;;;;;;;;;;5016409;28;20091;-85
2021/12/24 14:39:34;;;;;;;321.90;86.25;;;;;;;;;;5016496;28;20045;-85
2021/12/24 14:42:15;;;;;;;313.08;86.43;;;;;;;;;;5016256;28;20044;-85
2021/12/24 14:44:42;;;;;;;294.50;84.97;;;;;;;;;;5016303;28;20034;-85
2021/12/24 14:47:09;;;;;;;279.80;80.20;;;;;;;;;;5016307;28;20396;-85
2021/12/24 14:49:37;;;;;;;298.42;83.78;;;;;;;;;;5016989;28;20029;-85
2021/12/24 14:52:19;;;;;;;274.27;74.53;;;;;;;;;;5016287;28;20473;-86
2021/12/24 14:55:04;;;;;;;301.80;85.28;;;;;;;;;;5033915;28;20113;-86
2021/12/24 14:57:32;;;;;;;259.80;75.65;;;;;;;;;;5033744;28;20549;-85
2021/12/24 15:00:04;;;;;;;256.75;73.57;;;;;;;;;;5016056;28;20033;-85
2021/12/24 15:02:31;;;;;;;335.13;88.40;;;;;;;;;;5016003;28;20029;-85
2021/12/24 15:04:57;;;;;;;324.17;87.28;;;;;;;;;;5016066;28;20037;-85
2021/12/24 15:07:33;;;;;;;266.85;76.90;;;;;;;;;;5015822;28;20488;-84
2021/12/24 15:10:12;;;;;;;281.05;78.90;;;;;;;;;;5033685;28;20480;-85
2021/12/24 15:12:57;;;;;;;337.90;89.88;;;;;;;;;;5037536;28;20152;-85
2021/12/24 15:15:23;;;;;;;341.20;95.30;;;;;;;;;;5020147;28;20108;-85
2021/12/24 15:17:50;;;;;;;304.45;91.00;;;;;;;;;;5037445;28;20423;-85
2021/12/24 15:20:16;;;;;;;320.13;91.93;;;;;;;;;;5019867;28;20543;-85
2021/12/24 15:22:42;;;;;;;316.48;89.75;;;;;;;;;;5019880;28;20480;-85
2021/12/24 15:25:09;;;;;;;331.15;85.90;;;;;;;;;;5019484;28;20180;-85
2021/12/24 15:27:37;;;;;;;328.55;90.00;;;;;;;;;;5019820;28;20109;-85
2021/12/24 15:30:06;;;;;;;306.08;84.45;;;;;;;;;;5037657;28;20032;-84
2021/12/24 15:32:32;;;;;;;332.63;89.95;;;;;;;;;;5019442;28;20492;-85
2021/12/24 15:34:58;;;;;;;306.77;83.70;;;;;;;;;;5037766;28;20041;-85
2021/12/24 15:37:25;;;;;;;295.90;82.22;;;;;;;;;;5019291;28;20194;-85
2021/12/24 15:39:51;;;;;;;322.42;86.50;;;;;;;;;;5019417;28;20044;-85
2021/12/24 15:42:19;;;;;;;337.25;86.78;;;;;;;;;;5019620;28;20040;-85
2021/12/24 15:44:48;;;;;;;277.70;82.72;;;;;;;;;;5019452;28;20431;-85
2021/12/24 15:47:17;;;;;;;321.95;87.22;;;;;;;;;;5019415;28;20383;-85
2021/12/24 15:49:43;;;;;;;306.58;83.03;;;;;;;;;;5019340;28;20064;-85